sensor_id;sensor_type;location;lat;lon;timestamp;pressure;altitude;pressure_sealevel;temperature;humidity
64080;BME280;51042;49.696;10.808;2022-11-02T00:00:41;99043.69;;;8.02;100.00
64080;BME280;51042;49.696;10.808;2022-11-02T00:03:06;99041.75;;;7.99;100.00
64080;BME280;51042;49.696;10.808;2022-11-02T00:05:32;99045.78;;;7.84;100.00
64080;BME280;51042;49.696;10.808;2022-11-02T00:07:57;99045.47;;;7.71;100.00
64080;BME280;51042;49.696;10.808;2022-11-02T00:10:23;99042.44;;;7.55;100.00
64080;BME280;51042;49.696;10.808;2022-11-02T00:12:49;99037.81;;;7.45;100.00
64080;BME280;51042;49.696;10.808;2022-11-02T00:15:14;99039.81;;;7.37;100.00
64080;BME280;51042;49.696;10.808;2022-11-02T00:17:41;99040.19;;;7.35;100.00
64080;BME280;51042;49.696;10.808;2022-11-02T00:20:09;99039.03;;;7.36;100.00
64080;BME280;51042;49.696;10.808;2022-11-02T00:22:38;99037.03;;;7.41;100.00
64080;BME280;51042;49.696;10.808;2022-11-02T00:25:04;99037.00;;;7.48;100.00
64080;BME280;51042;49.696;10.808;2022-11-02T00:27:31;99038.97;;;7.51;100.00
64080;BME280;51042;49.696;10.808;2022-11-02T00:29:58;99045.19;;;7.55;100.00
64080;BME280;51042;49.696;10.808;2022-11-02T00:32:24;99047.09;;;7.58;100.00
64080;BME280;51042;49.696;10.808;2022-11-02T00:34:50;99049.41;;;7.63;100.00
64080;BME280;51042;49.696;10.808;2022-11-02T00:37:16;99050.19;;;7.63;100.00
64080;BME280;51042;49.696;10.808;2022-11-02T00:39:41;99049.44;;;7.59;100.00
64080;BME280;51042;49.696;10.808;2022-11-02T00:42:07;99058.00;;;7.58;100.00
64080;BME280;51042;49.696;10.808;2022-11-02T00:44:32;99054.97;;;7.49;100.00
64080;BME280;51042;49.696;10.808;2022-11-02T00:46:57;99061.97;;;7.46;100.00
64080;BME280;51042;49.696;10.808;2022-11-02T00:49:22;99060.84;;;7.40;100.00
64080;BME280;51042;49.696;10.808;2022-11-02T00:51:48;99058.13;;;7.33;100.00
64080;BME280;51042;49.696;10.808;2022-11-02T00:54:13;99058.19;;;7.22;100.00
64080;BME280;51042;49.696;10.808;2022-11-02T00:56:38;99062.91;;;7.15;100.00
64080;BME280;51042;49.696;10.808;2022-11-02T00:59:04;99059.44;;;7.07;100.00
64080;BME280;51042;49.696;10.808;2022-11-02T01:01:29;99056.69;;;7.04;100.00
64080;BME280;51042;49.696;10.808;2022-11-02T01:03:55;99056.75;;;6.96;100.00
64080;BME280;51042;49.696;10.808;2022-11-02T01:06:21;99054.00;;;6.86;100.00
64080;BME280;51042;49.696;10.808;2022-11-02T01:08:46;99047.44;;;6.73;100.00
64080;BME280;51042;49.696;10.808;2022-11-02T01:11:12;99050.94;;;6.70;100.00
64080;BME280;51042;49.696;10.808;2022-11-02T01:13:40;99040.84;;;6.67;100.00
64080;BME280;51042;49.696;10.808;2022-11-02T01:16:06;99047.84;;;6.61;100.00
64080;BME280;51042;49.696;10.808;2022-11-02T01:18:32;99051.34;;;6.50;100.00
64080;BME280;51042;49.696;10.808;2022-11-02T01:20:57;99054.09;;;6.47;100.00
64080;BME280;51042;49.696;10.808;2022-11-02T01:23:23;99045.16;;;6.43;100.00
64080;BME280;51042;49.696;10.808;2022-11-02T01:25:49;99045.94;;;6.36;100.00
64080;BME280;51042;49.696;10.808;2022-11-02T01:28:15;99045.94;;;6.33;100.00
64080;BME280;51042;49.696;10.808;2022-11-02T01:30:40;99037.75;;;6.26;100.00
64080;BME280;51042;49.696;10.808;2022-11-02T01:33:06;99043.59;;;6.24;100.00
64080;BME280;51042;49.696;10.808;2022-11-02T01:35:31;99045.53;;;6.20;100.00
64080;BME280;51042;49.696;10.808;2022-11-02T01:37:57;99030.00;;;6.13;100.00
64080;BME280;51042;49.696;10.808;2022-11-02T01:40:22;99035.03;;;6.08;100.00
64080;BME280;51042;49.696;10.808;2022-11-02T01:42:47;99034.66;;;6.06;100.00
64080;BME280;51042;49.696;10.808;2022-11-02T01:45:13;99035.03;;;6.01;100.00
64080;BME280;51042;49.696;10.808;2022-11-02T01:47:43;99036.19;;;5.96;100.00
64080;BME280;51042;49.696;10.808;2022-11-02T01:50:14;99028.41;;;5.91;100.00
64080;BME280;51042;49.696;10.808;2022-11-02T01:52:44;99034.59;;;5.85;100.00
64080;BME280;51042;49.696;10.808;2022-11-02T01:55:14;99029.16;;;5.81;100.00
64080;BME280;51042;49.696;10.808;2022-11-02T01:57:45;99031.50;;;5.83;100.00
64080;BME280;51042;49.696;10.808;2022-11-02T02:00:16;99026.44;;;5.81;100.00
64080;BME280;51042;49.696;10.808;2022-11-02T02:02:55;99039.63;;;5.72;100.00
64080;BME280;51042;49.696;10.808;2022-11-02T02:05:28;99037.28;;;5.67;100.00
64080;BME280;51042;49.696;10.808;2022-11-02T02:07:57;99035.34;;;5.64;100.00
64080;BME280;51042;49.696;10.808;2022-11-02T02:10:23;99036.91;;;5.65;100.00
64080;BME280;51042;49.696;10.808;2022-11-02T02:12:48;99028.34;;;5.63;100.00
64080;BME280;51042;49.696;10.808;2022-11-02T02:15:14;99023.28;;;5.61;100.00
64080;BME280;51042;49.696;10.808;2022-11-02T02:20:41;99016.28;;;5.57;100.00
64080;BME280;51042;49.696;10.808;2022-11-02T02:28:56;99012.38;;;5.54;100.00
64080;BME280;51042;49.696;10.808;2022-11-02T02:31:42;99005.00;;;5.51;100.00
64080;BME280;51042;49.696;10.808;2022-11-02T02:34:18;99007.34;;;5.53;100.00
64080;BME280;51042;49.696;10.808;2022-11-02T02:36:49;99012.38;;;5.51;100.00
64080;BME280;51042;49.696;10.808;2022-11-02T02:41:53;99010.81;;;5.46;100.00
64080;BME280;51042;49.696;10.808;2022-11-02T02:44:30;99009.25;;;5.42;100.00
64080;BME280;51042;49.696;10.808;2022-11-02T02:49:38;99011.94;;;5.31;100.00
64080;BME280;51042;49.696;10.808;2022-11-02T02:52:08;99013.47;;;5.25;100.00
64080;BME280;51042;49.696;10.808;2022-11-02T02:54:37;99013.88;;;5.27;100.00
64080;BME280;51042;49.696;10.808;2022-11-02T02:57:07;99005.31;;;5.25;100.00
64080;BME280;51042;49.696;10.808;2022-11-02T02:59:45;99006.09;;;5.22;100.00
64080;BME280;51042;49.696;10.808;2022-11-02T03:04:51;98999.09;;;5.28;100.00
64080;BME280;51042;49.696;10.808;2022-11-02T03:07:17;98999.09;;;5.24;100.00
64080;BME280;51042;49.696;10.808;2022-11-02T03:15:34;98993.69;;;5.35;100.00
64080;BME280;51042;49.696;10.808;2022-11-02T03:18:07;98995.22;;;5.32;100.00
64080;BME280;51042;49.696;10.808;2022-11-02T03:23:38;99004.53;;;5.17;100.00
64080;BME280;51042;49.696;10.808;2022-11-02T03:26:10;99007.63;;;5.12;100.00
64080;BME280;51042;49.696;10.808;2022-11-02T03:28:59;99011.09;;;5.09;100.00
64080;BME280;51042;49.696;10.808;2022-11-02T03:31:33;99007.19;;;5.03;100.00
64080;BME280;51042;49.696;10.808;2022-11-02T03:34:10;99009.91;;;5.03;100.00
64080;BME280;51042;49.696;10.808;2022-11-02T03:36:48;99007.19;;;5.00;100.00
64080;BME280;51042;49.696;10.808;2022-11-02T03:39:22;99000.56;;;4.97;100.00
64080;BME280;51042;49.696;10.808;2022-11-02T03:41:56;99010.25;;;4.94;100.00
64080;BME280;51042;49.696;10.808;2022-11-02T03:44:26;99021.91;;;4.95;100.00
64080;BME280;51042;49.696;10.808;2022-11-02T03:46:55;99014.53;;;4.96;100.00
64080;BME280;51042;49.696;10.808;2022-11-02T03:49:26;99024.28;;;5.00;100.00
64080;BME280;51042;49.696;10.808;2022-11-02T03:51:54;99017.28;;;4.99;100.00
64080;BME280;51042;49.696;10.808;2022-11-02T03:54:28;99025.84;;;5.05;100.00
64080;BME280;51042;49.696;10.808;2022-11-02T03:56:59;99020.41;;;5.08;100.00
64080;BME280;51042;49.696;10.808;2022-11-02T03:59:31;99020.44;;;5.12;100.00
64080;BME280;51042;49.696;10.808;2022-11-02T04:01:57;99025.09;;;5.15;100.00
64080;BME280;51042;49.696;10.808;2022-11-02T04:04:24;99023.16;;;5.15;100.00
64080;BME280;51042;49.696;10.808;2022-11-02T04:06:49;99020.03;;;5.10;100.00
64080;BME280;51042;49.696;10.808;2022-11-02T04:09:16;99011.06;;;5.02;100.00
64080;BME280;51042;49.696;10.808;2022-11-02T04:11:42;99027.75;;;4.97;100.00
64080;BME280;51042;49.696;10.808;2022-11-02T04:14:26;99023.06;;;4.90;100.00
64080;BME280;51042;49.696;10.808;2022-11-02T04:17:04;99023.00;;;4.83;100.00
64080;BME280;51042;49.696;10.808;2022-11-02T04:19:49;99023.00;;;4.76;100.00
64080;BME280;51042;49.696;10.808;2022-11-02T04:22:14;99019.13;;;4.81;100.00
64080;BME280;51042;49.696;10.808;2022-11-02T04:24:58;99022.22;;;4.79;100.00
64080;BME280;51042;49.696;10.808;2022-11-02T04:27:42;99024.16;;;4.79;100.00
64080;BME280;51042;49.696;10.808;2022-11-02T04:30:10;99021.84;;;4.81;100.00
64080;BME280;51042;49.696;10.808;2022-11-02T04:32:36;99019.91;;;4.81;100.00
64080;BME280;51042;49.696;10.808;2022-11-02T04:35:22;99016.47;;;4.88;100.00
64080;BME280;51042;49.696;10.808;2022-11-02T04:37:48;99021.91;;;4.91;100.00
64080;BME280;51042;49.696;10.808;2022-11-02T04:40:32;99024.25;;;4.93;100.00
64080;BME280;51042;49.696;10.808;2022-11-02T04:42:57;99034.72;;;4.94;100.00
64080;BME280;51042;49.696;10.808;2022-11-02T04:45:23;99034.38;;;5.00;100.00
64080;BME280;51042;49.696;10.808;2022-11-02T04:47:48;99031.25;;;4.98;100.00
64080;BME280;51042;49.696;10.808;2022-11-02T04:50:13;99020.75;;;4.92;100.00
64080;BME280;51042;49.696;10.808;2022-11-02T04:52:39;99028.53;;;4.94;100.00
64080;BME280;51042;49.696;10.808;2022-11-02T04:55:04;99027.75;;;4.93;100.00
64080;BME280;51042;49.696;10.808;2022-11-02T04:57:30;99026.56;;;4.94;100.00
64080;BME280;51042;49.696;10.808;2022-11-02T04:59:55;99019.59;;;4.93;100.00
64080;BME280;51042;49.696;10.808;2022-11-02T05:02:20;99031.22;;;4.87;100.00
64080;BME280;51042;49.696;10.808;2022-11-02T05:04:46;99026.88;;;4.79;100.00
64080;BME280;51042;49.696;10.808;2022-11-02T05:07:11;99028.44;;;4.76;100.00
64080;BME280;51042;49.696;10.808;2022-11-02T05:09:37;99024.94;;;4.76;100.00
64080;BME280;51042;49.696;10.808;2022-11-02T05:12:02;99023.00;;;4.76;100.00
64080;BME280;51042;49.696;10.808;2022-11-02T05:14:29;99023.38;;;4.75;100.00
64080;BME280;51042;49.696;10.808;2022-11-02T05:16:55;99030.75;;;4.78;100.00
64080;BME280;51042;49.696;10.808;2022-11-02T05:19:22;99032.28;;;4.72;100.00
64080;BME280;51042;49.696;10.808;2022-11-02T05:21:48;99026.47;;;4.70;100.00
64080;BME280;51042;49.696;10.808;2022-11-02T05:24:13;99040.03;;;4.66;100.00
64080;BME280;51042;49.696;10.808;2022-11-02T05:26:38;99032.63;;;4.63;100.00
64080;BME280;51042;49.696;10.808;2022-11-02T05:29:04;99038.88;;;4.67;100.00
64080;BME280;51042;49.696;10.808;2022-11-02T05:31:29;99047.38;;;4.66;100.00
64080;BME280;51042;49.696;10.808;2022-11-02T05:33:55;99041.16;;;4.62;100.00
64080;BME280;51042;49.696;10.808;2022-11-02T05:36:20;99038.81;;;4.60;100.00
64080;BME280;51042;49.696;10.808;2022-11-02T05:38:45;99042.28;;;4.53;100.00
64080;BME280;51042;49.696;10.808;2022-11-02T05:41:10;99048.84;;;4.49;100.00
64080;BME280;51042;49.696;10.808;2022-11-02T05:43:36;99047.63;;;4.39;100.00
64080;BME280;51042;49.696;10.808;2022-11-02T05:46:01;99053.44;;;4.38;100.00
64080;BME280;51042;49.696;10.808;2022-11-02T05:48:29;99058.44;;;4.36;100.00
64080;BME280;51042;49.696;10.808;2022-11-02T05:51:00;99053.00;;;4.32;100.00
64080;BME280;51042;49.696;10.808;2022-11-02T05:53:28;99053.75;;;4.29;100.00
64080;BME280;51042;49.696;10.808;2022-11-02T05:56:00;99058.03;;;4.30;100.00
64080;BME280;51042;49.696;10.808;2022-11-02T05:58:27;99061.56;;;4.34;100.00
64080;BME280;51042;49.696;10.808;2022-11-02T06:00:53;99058.03;;;4.30;100.00
64080;BME280;51042;49.696;10.808;2022-11-02T06:03:19;99051.38;;;4.24;100.00
64080;BME280;51042;49.696;10.808;2022-11-02T06:05:44;99056.38;;;4.19;100.00
64080;BME280;51042;49.696;10.808;2022-11-02T06:08:09;99069.22;;;4.22;100.00
64080;BME280;51042;49.696;10.808;2022-11-02T06:10:35;99065.72;;;4.21;100.00
64080;BME280;51042;49.696;10.808;2022-11-02T06:13:01;99065.34;;;4.23;100.00
64080;BME280;51042;49.696;10.808;2022-11-02T06:15:28;99069.25;;;4.25;100.00
64080;BME280;51042;49.696;10.808;2022-11-02T06:17:54;99075.47;;;4.26;100.00
64080;BME280;51042;49.696;10.808;2022-11-02T06:20:20;99072.38;;;4.27;100.00
64080;BME280;51042;49.696;10.808;2022-11-02T06:22:46;99070.44;;;4.28;100.00
64080;BME280;51042;49.696;10.808;2022-11-02T06:25:11;99064.66;;;4.33;100.00
64080;BME280;51042;49.696;10.808;2022-11-02T06:27:37;99079.44;;;4.39;100.00
64080;BME280;51042;49.696;10.808;2022-11-02T06:30:03;99079.47;;;4.42;100.00
64080;BME280;51042;49.696;10.808;2022-11-02T06:32:29;99076.00;;;4.45;100.00
64080;BME280;51042;49.696;10.808;2022-11-02T06:34:54;99079.53;;;4.53;100.00
64080;BME280;51042;49.696;10.808;2022-11-02T06:37:20;99083.91;;;4.68;100.00
64080;BME280;51042;49.696;10.808;2022-11-02T06:39:46;99086.38;;;4.87;100.00
64080;BME280;51042;49.696;10.808;2022-11-02T06:42:11;99092.69;;;5.09;100.00
64080;BME280;51042;49.696;10.808;2022-11-02T06:44:37;99089.31;;;5.30;100.00
64080;BME280;51042;49.696;10.808;2022-11-02T06:47:02;99095.72;;;5.87;100.00
64080;BME280;51042;49.696;10.808;2022-11-02T06:49:27;99091.50;;;6.36;100.00
64080;BME280;51042;49.696;10.808;2022-11-02T06:51:53;99094.59;;;6.70;100.00
64080;BME280;51042;49.696;10.808;2022-11-02T06:54:18;99092.63;;;6.56;100.00
64080;BME280;51042;49.696;10.808;2022-11-02T06:56:43;99101.59;;;6.32;100.00
64080;BME280;51042;49.696;10.808;2022-11-02T06:59:08;99096.94;;;6.18;100.00
64080;BME280;51042;49.696;10.808;2022-11-02T07:01:34;99103.56;;;6.17;100.00
64080;BME280;51042;49.696;10.808;2022-11-02T07:04:00;99114.84;;;6.26;100.00
64080;BME280;51042;49.696;10.808;2022-11-02T07:06:26;99122.28;;;6.43;100.00
64080;BME280;51042;49.696;10.808;2022-11-02T07:08:51;99120.28;;;6.62;100.00
64080;BME280;51042;49.696;10.808;2022-11-02T07:11:16;99128.06;;;6.81;100.00
64080;BME280;51042;49.696;10.808;2022-11-02T07:13:42;99135.81;;;7.11;100.00
64080;BME280;51042;49.696;10.808;2022-11-02T07:16:08;99137.34;;;7.26;100.00
64080;BME280;51042;49.696;10.808;2022-11-02T07:18:33;99143.91;;;7.46;100.00
64080;BME280;51042;49.696;10.808;2022-11-02T07:20:59;99146.19;;;7.65;99.89
64080;BME280;51042;49.696;10.808;2022-11-02T07:23:24;99142.97;;;7.81;98.72
64080;BME280;51042;49.696;10.808;2022-11-02T07:25:49;99156.50;;;8.06;98.16
64080;BME280;51042;49.696;10.808;2022-11-02T07:28:15;99157.91;;;8.35;97.53
64080;BME280;51042;49.696;10.808;2022-11-02T07:30:40;99162.06;;;8.57;96.82
64080;BME280;51042;49.696;10.808;2022-11-02T07:33:05;99164.91;;;8.91;95.81
64080;BME280;51042;49.696;10.808;2022-11-02T07:35:30;99168.44;;;9.29;94.34
64080;BME280;51042;49.696;10.808;2022-11-02T07:38:02;99157.19;;;9.54;93.66
64080;BME280;51042;49.696;10.808;2022-11-02T07:40:30;99163.38;;;9.62;93.79
64080;BME280;51042;49.696;10.808;2022-11-02T07:42:56;99167.75;;;9.56;94.80
64080;BME280;51042;49.696;10.808;2022-11-02T07:45:22;99171.34;;;9.49;96.51
64080;BME280;51042;49.696;10.808;2022-11-02T07:47:48;99167.91;;;9.41;97.32
64080;BME280;51042;49.696;10.808;2022-11-02T07:50:18;99185.69;;;9.26;98.83
64080;BME280;51042;49.696;10.808;2022-11-02T07:52:47;99179.66;;;9.05;100.00
64080;BME280;51042;49.696;10.808;2022-11-02T07:55:14;99184.06;;;8.91;100.00
64080;BME280;51042;49.696;10.808;2022-11-02T07:57:41;99180.59;;;8.87;100.00
64080;BME280;51042;49.696;10.808;2022-11-02T08:00:07;99181.34;;;8.88;100.00
64080;BME280;51042;49.696;10.808;2022-11-02T08:02:36;99186.41;;;8.89;100.00
64080;BME280;51042;49.696;10.808;2022-11-02T08:05:01;99191.88;;;8.89;100.00
64080;BME280;51042;49.696;10.808;2022-11-02T08:07:27;99181.75;;;8.86;100.00
64080;BME280;51042;49.696;10.808;2022-11-02T08:09:52;99184.84;;;8.92;100.00
64080;BME280;51042;49.696;10.808;2022-11-02T08:12:17;99194.50;;;9.04;100.00
64080;BME280;51042;49.696;10.808;2022-11-02T08:14:43;99203.75;;;9.20;100.00
64080;BME280;51042;49.696;10.808;2022-11-02T08:17:08;99197.78;;;9.29;100.00
64080;BME280;51042;49.696;10.808;2022-11-02T08:19:34;99203.63;;;9.31;100.00
64080;BME280;51042;49.696;10.808;2022-11-02T08:21:59;99212.94;;;9.40;100.00
64080;BME280;51042;49.696;10.808;2022-11-02T08:24:24;99211.03;;;9.34;100.00
64080;BME280;51042;49.696;10.808;2022-11-02T08:26:49;99204.81;;;9.30;100.00
64080;BME280;51042;49.696;10.808;2022-11-02T08:29:15;99204.47;;;9.24;100.00
64080;BME280;51042;49.696;10.808;2022-11-02T08:31:40;99206.09;;;9.18;100.00
64080;BME280;51042;49.696;10.808;2022-11-02T08:34:05;99202.97;;;9.20;100.00
64080;BME280;51042;49.696;10.808;2022-11-02T08:36:33;99214.63;;;9.27;100.00
64080;BME280;51042;49.696;10.808;2022-11-02T08:39:00;99214.47;;;9.41;100.00
64080;BME280;51042;49.696;10.808;2022-11-02T08:41:25;99210.41;;;9.57;100.00
64080;BME280;51042;49.696;10.808;2022-11-02T08:43:50;99209.91;;;9.65;100.00
64080;BME280;51042;49.696;10.808;2022-11-02T08:46:16;99206.63;;;9.81;100.00
64080;BME280;51042;49.696;10.808;2022-11-02T08:48:41;99209.91;;;9.99;100.00
64080;BME280;51042;49.696;10.808;2022-11-02T08:51:06;99199.13;;;10.15;100.00
64080;BME280;51042;49.696;10.808;2022-11-02T08:53:32;99206.34;;;10.33;100.00
64080;BME280;51042;49.696;10.808;2022-11-02T08:55:58;99199.91;;;10.46;100.00
64080;BME280;51042;49.696;10.808;2022-11-02T08:58:23;99199.31;;;10.58;100.00
64080;BME280;51042;49.696;10.808;2022-11-02T09:00:51;99202.09;;;10.82;100.00
64080;BME280;51042;49.696;10.808;2022-11-02T09:03:17;99201.28;;;11.08;99.39
64080;BME280;51042;49.696;10.808;2022-11-02T09:05:44;99202.38;;;11.34;96.01
64080;BME280;51042;49.696;10.808;2022-11-02T09:08:14;99202.94;;;11.45;95.44
64080;BME280;51042;49.696;10.808;2022-11-02T09:10:41;99205.03;;;11.61;94.97
64080;BME280;51042;49.696;10.808;2022-11-02T09:13:09;99204.16;;;11.64;93.97
64080;BME280;51042;49.696;10.808;2022-11-02T09:15:36;99200.66;;;11.63;94.98
64080;BME280;51042;49.696;10.808;2022-11-02T09:18:02;99206.00;;;11.51;95.50
64080;BME280;51042;49.696;10.808;2022-11-02T09:20:28;99207.16;;;11.30;96.91
64080;BME280;51042;49.696;10.808;2022-11-02T09:22:53;99196.91;;;11.11;98.13
64080;BME280;51042;49.696;10.808;2022-11-02T09:25:18;99204.56;;;10.99;99.83
64080;BME280;51042;49.696;10.808;2022-11-02T09:27:44;99209.38;;;10.92;100.00
64080;BME280;51042;49.696;10.808;2022-11-02T09:30:09;99213.78;;;10.86;100.00
64080;BME280;51042;49.696;10.808;2022-11-02T09:32:36;99215.25;;;10.94;100.00
64080;BME280;51042;49.696;10.808;2022-11-02T09:35:03;99201.41;;;11.01;100.00
64080;BME280;51042;49.696;10.808;2022-11-02T09:37:33;99207.22;;;11.26;99.66
64080;BME280;51042;49.696;10.808;2022-11-02T09:39:58;99217.31;;;11.33;98.03
64080;BME280;51042;49.696;10.808;2022-11-02T09:42:33;99211.88;;;11.29;98.20
64080;BME280;51042;49.696;10.808;2022-11-02T09:45:07;99220.66;;;11.21;99.08
64080;BME280;51042;49.696;10.808;2022-11-02T09:47:40;99207.00;;;11.17;99.12
64080;BME280;51042;49.696;10.808;2022-11-02T09:50:15;99224.97;;;11.22;98.97
64080;BME280;51042;49.696;10.808;2022-11-02T09:52:45;99221.50;;;11.41;98.93
64080;BME280;51042;49.696;10.808;2022-11-02T09:55:18;99232.06;;;11.62;97.78
64080;BME280;51042;49.696;10.808;2022-11-02T09:57:50;99231.91;;;11.73;96.65
64080;BME280;51042;49.696;10.808;2022-11-02T10:00:23;99225.63;;;11.72;96.39
64080;BME280;51042;49.696;10.808;2022-11-02T10:02:57;99229.97;;;11.73;96.92
64080;BME280;51042;49.696;10.808;2022-11-02T10:08:28;99236.13;;;12.17;93.22
64080;BME280;51042;49.696;10.808;2022-11-02T10:14:04;99222.63;;;12.58;91.08
64080;BME280;51042;49.696;10.808;2022-11-02T10:16:37;99221.13;;;12.90;87.98
64080;BME280;51042;49.696;10.808;2022-11-02T10:19:10;99232.06;;;13.09;87.01
64080;BME280;51042;49.696;10.808;2022-11-02T10:21:40;99230.69;;;13.18;86.05
64080;BME280;51042;49.696;10.808;2022-11-02T10:24:14;99227.47;;;13.35;84.27
64080;BME280;51042;49.696;10.808;2022-11-02T10:26:54;99235.50;;;13.30;83.66
64080;BME280;51042;49.696;10.808;2022-11-02T10:29:34;99227.22;;;13.30;83.79
64080;BME280;51042;49.696;10.808;2022-11-02T10:32:18;99224.00;;;13.47;83.07
64080;BME280;51042;49.696;10.808;2022-11-02T10:34:43;99220.22;;;13.41;81.30
64080;BME280;51042;49.696;10.808;2022-11-02T10:43:21;99219.50;;;13.08;81.15
64080;BME280;51042;49.696;10.808;2022-11-02T10:46:09;99222.94;;;12.96;79.26
64080;BME280;51042;49.696;10.808;2022-11-02T10:48:43;99215.28;;;13.04;80.52
64080;BME280;51042;49.696;10.808;2022-11-02T10:51:18;99211.66;;;13.07;79.15
64080;BME280;51042;49.696;10.808;2022-11-02T10:53:46;99222.16;;;12.96;77.77
64080;BME280;51042;49.696;10.808;2022-11-02T10:56:20;99211.91;;;12.80;78.04
64080;BME280;51042;49.696;10.808;2022-11-02T11:01:26;99226.22;;;12.91;79.99
64080;BME280;51042;49.696;10.808;2022-11-02T11:06:41;99230.00;;;12.97;79.25
64080;BME280;51042;49.696;10.808;2022-11-02T11:11:39;99226.38;;;12.68;79.41
64080;BME280;51042;49.696;10.808;2022-11-02T11:14:06;99235.16;;;12.63;79.92
64080;BME280;51042;49.696;10.808;2022-11-02T11:16:40;99233.25;;;12.76;80.23
64080;BME280;51042;49.696;10.808;2022-11-02T11:22:01;99222.41;;;13.01;78.39
64080;BME280;51042;49.696;10.808;2022-11-02T11:24:28;99222.66;;;13.23;77.32
64080;BME280;51042;49.696;10.808;2022-11-02T11:29:54;99224.41;;;13.33;75.83
64080;BME280;51042;49.696;10.808;2022-11-02T11:32:22;99212.41;;;13.40;75.90
64080;BME280;51042;49.696;10.808;2022-11-02T11:34:52;99222.13;;;13.44;75.53
64080;BME280;51042;49.696;10.808;2022-11-02T11:37:20;99221.97;;;13.52;74.50
64080;BME280;51042;49.696;10.808;2022-11-02T11:39:49;99212.22;;;13.47;74.49
64080;BME280;51042;49.696;10.808;2022-11-02T11:42:19;99215.31;;;13.78;72.73
64080;BME280;51042;49.696;10.808;2022-11-02T11:45:13;99219.59;;;14.08;71.53
64080;BME280;51042;49.696;10.808;2022-11-02T11:50:45;99229.06;;;14.61;68.34
64080;BME280;51042;49.696;10.808;2022-11-02T11:55:38;99226.63;;;15.01;67.64
64080;BME280;51042;49.696;10.808;2022-11-02T11:58:21;99228.44;;;15.29;66.98
64080;BME280;51042;49.696;10.808;2022-11-02T12:01:14;99229.59;;;15.66;66.06
64080;BME280;51042;49.696;10.808;2022-11-02T12:03:51;99227.53;;;16.01;65.12
64080;BME280;51042;49.696;10.808;2022-11-02T12:17:58;99230.63;;;15.47;62.75
64080;BME280;51042;49.696;10.808;2022-11-02T12:26:10;99218.28;;;14.25;67.06
64080;BME280;51042;49.696;10.808;2022-11-02T12:28:50;99214.09;;;13.79;68.05
64080;BME280;51042;49.696;10.808;2022-11-02T12:31:40;99209.44;;;14.05;67.93
64080;BME280;51042;49.696;10.808;2022-11-02T12:34:24;99206.34;;;14.03;67.03
64080;BME280;51042;49.696;10.808;2022-11-02T12:37:04;99209.56;;;13.72;67.74
64080;BME280;51042;49.696;10.808;2022-11-02T12:39:51;99207.41;;;13.35;68.36
64080;BME280;51042;49.696;10.808;2022-11-02T12:42:36;99209.66;;;13.24;68.95
64080;BME280;51042;49.696;10.808;2022-11-02T12:47:58;99206.22;;;12.87;70.95
64080;BME280;51042;49.696;10.808;2022-11-02T12:53:20;99191.78;;;12.67;71.26
64080;BME280;51042;49.696;10.808;2022-11-02T12:55:58;99198.47;;;12.82;71.63
64080;BME280;51042;49.696;10.808;2022-11-02T12:58:27;99200.28;;;12.73;71.56
64080;BME280;51042;49.696;10.808;2022-11-02T13:01:09;99195.72;;;12.66;72.45
64080;BME280;51042;49.696;10.808;2022-11-02T13:03:50;99182.03;;;12.79;72.18
64080;BME280;51042;49.696;10.808;2022-11-02T13:06:20;99187.00;;;13.32;70.89
64080;BME280;51042;49.696;10.808;2022-11-02T13:08:53;99172.09;;;13.59;70.65
64080;BME280;51042;49.696;10.808;2022-11-02T13:11:27;99170.28;;;13.39;71.06
64080;BME280;51042;49.696;10.808;2022-11-02T13:13:57;99175.91;;;13.77;69.53
64080;BME280;51042;49.696;10.808;2022-11-02T13:19:21;99176.94;;;14.50;65.98
64080;BME280;51042;49.696;10.808;2022-11-02T13:21:53;99183.13;;;14.42;66.27
64080;BME280;51042;49.696;10.808;2022-11-02T13:24:22;99185.84;;;14.16;67.00
64080;BME280;51042;49.696;10.808;2022-11-02T13:26:51;99177.34;;;14.23;67.57
64080;BME280;51042;49.696;10.808;2022-11-02T13:34:40;99177.97;;;13.61;68.97
64080;BME280;51042;49.696;10.808;2022-11-02T13:37:25;99181.25;;;13.27;70.54
64080;BME280;51042;49.696;10.808;2022-11-02T13:39:59;99184.09;;;13.07;71.64
64080;BME280;51042;49.696;10.808;2022-11-02T13:42:40;99168.78;;;12.90;71.95
64080;BME280;51042;49.696;10.808;2022-11-02T13:45:29;99172.91;;;12.98;72.02
64080;BME280;51042;49.696;10.808;2022-11-02T13:56:35;99167.28;;;14.17;68.07
64080;BME280;51042;49.696;10.808;2022-11-02T13:59:02;99163.97;;;14.35;67.19
64080;BME280;51042;49.696;10.808;2022-11-02T14:01:32;99164.78;;;14.48;66.93
64080;BME280;51042;49.696;10.808;2022-11-02T14:06:27;99165.75;;;14.66;65.39
64080;BME280;51042;49.696;10.808;2022-11-02T14:08:58;99173.56;;;14.93;64.24
64080;BME280;51042;49.696;10.808;2022-11-02T14:11:49;99175.34;;;14.87;63.88
64080;BME280;51042;49.696;10.808;2022-11-02T14:16:45;99177.91;;;14.44;64.87
64080;BME280;51042;49.696;10.808;2022-11-02T14:22:14;99186.38;;;14.11;65.27
64080;BME280;51042;49.696;10.808;2022-11-02T14:32:54;99189.78;;;13.61;67.31
64080;BME280;51042;49.696;10.808;2022-11-02T14:48:56;99184.25;;;13.61;68.16
64080;BME280;51042;49.696;10.808;2022-11-02T14:51:27;99177.72;;;13.55;68.52
64080;BME280;51042;49.696;10.808;2022-11-02T14:56:58;99162.03;;;13.39;68.36
64080;BME280;51042;49.696;10.808;2022-11-02T14:59:32;99159.09;;;13.30;69.13
64080;BME280;51042;49.696;10.808;2022-11-02T15:02:21;99161.91;;;13.14;69.19
64080;BME280;51042;49.696;10.808;2022-11-02T15:04:53;99157.06;;;13.02;69.70
64080;BME280;51042;49.696;10.808;2022-11-02T15:07:21;99155.09;;;12.86;70.26
64080;BME280;51042;49.696;10.808;2022-11-02T15:09:58;99165.25;;;12.73;70.79